Time;durP1;ratioP1;P1;durP2;ratioP2;P2;SDS_P1;SDS_P2;PMS_P1;PMS_P2;Temp;Humidity;BMP_temperature;BMP_pressure;BME280_temperature;BME280_humidity;BME280_pressure;Samples;Min_cycle;Max_cycle;Signal;HPM_P1;HPM_P2
2022/09/02 00:00:13;;;;;;;15.65;4.45;;;;;;;;;;5133820;27;20022;-55
2022/09/02 00:02:38;;;;;;;9.63;4.53;;;;;;;;;;5134883;27;20033;-50
2022/09/02 00:05:05;;;;;;;12.20;5.00;;;;;;;;;;5128067;27;20015;-49
2022/09/02 00:07:31;;;;;;;11.07;4.53;;;;;;;;;;5133396;27;20033;-54
2022/09/02 00:09:56;;;;;;;13.00;6.00;;;;;;;;;;5128244;27;20023;-49
2022/09/02 00:12:22;;;;;;;16.63;4.88;;;;;;;;;;5123913;27;20387;-53
2022/09/02 00:14:47;;;;;;;12.43;5.30;;;;;;;;;;5131300;27;20108;-53
2022/09/02 00:17:12;;;;;;;14.90;5.20;;;;;;;;;;5128126;27;20087;-54
2022/09/02 00:19:38;;;;;;;17.23;4.82;;;;;;;;;;5133774;27;20019;-56
2022/09/02 00:22:03;;;;;;;13.98;5.47;;;;;;;;;;5127549;27;20449;-53
2022/09/02 00:24:29;;;;;;;12.23;5.97;;;;;;;;;;5128683;27;20034;-51
2022/09/02 00:26:54;;;;;;;8.10;3.15;;;;;;;;;;5135714;27;20015;-52
2022/09/02 00:29:19;;;;;;;16.13;4.65;;;;;;;;;;5137090;27;20014;-51
2022/09/02 00:31:45;;;;;;;18.50;6.97;;;;;;;;;;5133518;27;20027;-54
2022/09/02 00:34:11;;;;;;;12.35;4.82;;;;;;;;;;5130684;27;20038;-54
2022/09/02 00:36:36;;;;;;;12.43;4.05;;;;;;;;;;5133132;27;20030;-54
2022/09/02 00:39:03;;;;;;;13.30;5.45;;;;;;;;;;5133961;27;20023;-54
2022/09/02 00:41:29;;;;;;;27.17;7.60;;;;;;;;;;5127262;27;20029;-55
2022/09/02 00:43:57;;;;;;;9.68;3.25;;;;;;;;;;5125881;27;20099;-52
2022/09/02 00:46:23;;;;;;;14.85;5.90;;;;;;;;;;5128967;27;20030;-53
2022/09/02 00:49:04;;;;;;;19.38;6.65;;;;;;;;;;5135090;27;20427;-54
2022/09/02 00:51:33;;;;;;;14.30;4.40;;;;;;;;;;5130920;27;20106;-54
2022/09/02 00:53:58;;;;;;;15.77;3.90;;;;;;;;;;5127749;27;20050;-55
2022/09/02 00:56:25;;;;;;;17.27;5.22;;;;;;;;;;5132563;27;20081;-52
2022/09/02 00:58:50;;;;;;;21.35;5.32;;;;;;;;;;5133922;27;20118;-52
2022/09/02 01:01:16;;;;;;;13.50;3.92;;;;;;;;;;5129956;27;20121;-54
2022/09/02 01:03:42;;;;;;;20.50;5.78;;;;;;;;;;5132496;27;20162;-54
2022/09/02 01:06:10;;;;;;;34.00;6.65;;;;;;;;;;5129311;27;20023;-54
2022/09/02 01:08:37;;;;;;;20.58;6.15;;;;;;;;;;5132326;27;20111;-53
2022/09/02 01:11:05;;;;;;;23.63;6.45;;;;;;;;;;5130522;27;20019;-54
2022/09/02 01:13:34;;;;;;;13.73;3.80;;;;;;;;;;5126445;27;20482;-54
2022/09/02 01:16:11;;;;;;;15.82;6.15;;;;;;;;;;5125978;27;20023;-55
2022/09/02 01:18:37;;;;;;;21.50;7.32;;;;;;;;;;5130318;27;20015;-54
2022/09/02 01:21:03;;;;;;;11.45;5.68;;;;;;;;;;5128304;27;20019;-55
2022/09/02 01:23:28;;;;;;;13.68;6.57;;;;;;;;;;5124911;27;20480;-55
2022/09/02 01:25:54;;;;;;;16.00;5.43;;;;;;;;;;5135291;27;20022;-55
2022/09/02 01:28:20;;;;;;;9.80;4.80;;;;;;;;;;5129272;27;20015;-55
2022/09/02 01:30:49;;;;;;;15.23;4.93;;;;;;;;;;5129365;27;20015;-54
2022/09/02 01:33:16;;;;;;;13.20;6.68;;;;;;;;;;5132481;27;20016;-56
2022/09/02 01:35:41;;;;;;;26.73;5.88;;;;;;;;;;5130773;27;20035;-56
2022/09/02 01:38:06;;;;;;;21.42;7.43;;;;;;;;;;5128511;27;20099;-53
2022/09/02 01:40:32;;;;;;;11.50;5.55;;;;;;;;;;5131006;27;20364;-56
2022/09/02 01:43:04;;;;;;;21.98;5.25;;;;;;;;;;5131862;27;20480;-55
2022/09/02 01:45:29;;;;;;;19.27;5.70;;;;;;;;;;5134916;27;20019;-56
2022/09/02 01:47:55;;;;;;;17.75;4.15;;;;;;;;;;5133277;27;20648;-55
2022/09/02 01:50:20;;;;;;;24.15;6.45;;;;;;;;;;5127667;27;20026;-53
2022/09/02 01:52:46;;;;;;;16.67;5.22;;;;;;;;;;5136846;27;20023;-55
2022/09/02 01:55:11;;;;;;;22.70;7.10;;;;;;;;;;5131477;27;20536;-54
2022/09/02 01:57:37;;;;;;;28.80;7.22;;;;;;;;;;5134552;27;20023;-53
2022/09/02 02:00:04;;;;;;;30.52;5.90;;;;;;;;;;5134470;27;20437;-54
2022/09/02 02:02:29;;;;;;;17.58;6.65;;;;;;;;;;5135612;27;20481;-50
2022/09/02 02:04:55;;;;;;;13.43;5.63;;;;;;;;;;5141179;27;20022;-50
2022/09/02 02:07:21;;;;;;;13.18;5.70;;;;;;;;;;5134180;27;20116;-50
2022/09/02 02:09:47;;;;;;;14.30;4.03;;;;;;;;;;5135632;27;20023;-54
2022/09/02 02:12:12;;;;;;;24.90;6.75;;;;;;;;;;5130723;27;20019;-54
2022/09/02 02:14:38;;;;;;;13.77;4.75;;;;;;;;;;5136104;27;20037;-53
2022/09/02 02:17:03;;;;;;;15.95;6.20;;;;;;;;;;5133201;27;20023;-52
2022/09/02 02:19:28;;;;;;;14.50;6.05;;;;;;;;;;5134311;27;20023;-55
2022/09/02 02:21:54;;;;;;;23.10;5.75;;;;;;;;;;5132194;27;20438;-55
2022/09/02 02:24:19;;;;;;;10.50;4.47;;;;;;;;;;5137046;27;20094;-52
2022/09/02 02:26:45;;;;;;;10.65;4.78;;;;;;;;;;5141843;27;20052;-55
2022/09/02 02:29:12;;;;;;;15.15;5.55;;;;;;;;;;5131709;27;20090;-49
2022/09/02 02:31:37;;;;;;;17.77;6.60;;;;;;;;;;5133326;27;20113;-54
2022/09/02 02:34:03;;;;;;;19.33;7.60;;;;;;;;;;5133472;27;20155;-54
2022/09/02 02:36:28;;;;;;;25.80;5.55;;;;;;;;;;5137256;27;20102;-50
2022/09/02 02:38:53;;;;;;;20.40;6.00;;;;;;;;;;5133588;27;20638;-55
2022/09/02 02:41:19;;;;;;;19.80;5.43;;;;;;;;;;5138426;27;20035;-55
2022/09/02 02:43:46;;;;;;;22.67;6.07;;;;;;;;;;5135627;27;20462;-54
2022/09/02 02:46:12;;;;;;;28.02;6.10;;;;;;;;;;5130680;27;20011;-53
2022/09/02 02:48:38;;;;;;;19.98;6.07;;;;;;;;;;5132274;27;20015;-53
2022/09/02 02:51:03;;;;;;;19.70;5.07;;;;;;;;;;5135702;27;20123;-54
2022/09/02 02:53:30;;;;;;;17.88;7.50;;;;;;;;;;5137669;27;20027;-49
2022/09/02 02:55:56;;;;;;;16.55;4.72;;;;;;;;;;5129736;27;20484;-55
2022/09/02 02:58:21;;;;;;;20.05;6.35;;;;;;;;;;5132635;27;20589;-52
2022/09/02 03:00:47;;;;;;;22.25;5.85;;;;;;;;;;5135218;27;20059;-56
2022/09/02 03:03:12;;;;;;;26.70;5.78;;;;;;;;;;5131173;27;20035;-50
2022/09/02 03:05:40;;;;;;;12.50;3.97;;;;;;;;;;5132811;27;20026;-53
2022/09/02 03:08:07;;;;;;;19.10;4.55;;;;;;;;;;5135057;27;20103;-53
2022/09/02 03:10:32;;;;;;;18.38;4.75;;;;;;;;;;5134033;27;20023;-52
2022/09/02 03:12:58;;;;;;;24.10;5.78;;;;;;;;;;5136928;27;20076;-52
2022/09/02 03:15:24;;;;;;;10.90;5.57;;;;;;;;;;5134324;27;20113;-55
2022/09/02 03:17:49;;;;;;;25.92;6.45;;;;;;;;;;5132628;27;20061;-53
2022/09/02 03:20:16;;;;;;;12.50;3.90;;;;;;;;;;5134666;27;20023;-55
2022/09/02 03:22:43;;;;;;;20.17;6.13;;;;;;;;;;5133696;27;20110;-56
2022/09/02 03:25:10;;;;;;;17.55;4.05;;;;;;;;;;5130828;27;20391;-51
2022/09/02 03:27:38;;;;;;;14.32;5.68;;;;;;;;;;5129761;27;20042;-52
2022/09/02 03:30:06;;;;;;;16.00;4.68;;;;;;;;;;5130782;27;20049;-51
2022/09/02 03:32:31;;;;;;;12.70;4.15;;;;;;;;;;5132647;27;20110;-53
2022/09/02 03:34:56;;;;;;;15.68;5.55;;;;;;;;;;5127175;27;20451;-52
2022/09/02 03:37:22;;;;;;;7.15;3.50;;;;;;;;;;5130471;27;20023;-51
2022/09/02 03:39:47;;;;;;;29.42;6.55;;;;;;;;;;5130691;27;20474;-53
2022/09/02 03:42:12;;;;;;;23.35;5.47;;;;;;;;;;5125584;27;20039;-53
2022/09/02 03:44:40;;;;;;;18.35;5.28;;;;;;;;;;5130599;27;20094;-53
2022/09/02 03:47:05;;;;;;;13.80;5.70;;;;;;;;;;5130043;27;20014;-52
2022/09/02 03:49:30;;;;;;;9.13;4.10;;;;;;;;;;5130628;27;20389;-54
2022/09/02 03:51:56;;;;;;;15.45;5.30;;;;;;;;;;5133904;27;20019;-56
2022/09/02 03:54:21;;;;;;;26.77;6.07;;;;;;;;;;5131910;27;20035;-53
2022/09/02 03:56:46;;;;;;;9.57;3.75;;;;;;;;;;5133801;27;20446;-54
2022/09/02 03:59:12;;;;;;;17.50;7.57;;;;;;;;;;5129190;27;20019;-54
2022/09/02 04:01:37;;;;;;;23.92;6.95;;;;;;;;;;5133835;27;20023;-51
2022/09/02 04:04:04;;;;;;;21.40;5.70;;;;;;;;;;5127718;27;20020;-54
2022/09/02 04:06:29;;;;;;;22.38;4.65;;;;;;;;;;5134324;27;20011;-55
2022/09/02 04:08:55;;;;;;;12.48;5.50;;;;;;;;;;5134344;27;20034;-51
2022/09/02 04:11:21;;;;;;;16.70;4.07;;;;;;;;;;5138761;27;20023;-52
2022/09/02 04:13:47;;;;;;;31.98;6.13;;;;;;;;;;5135337;27;20023;-53
2022/09/02 04:16:14;;;;;;;18.73;4.50;;;;;;;;;;5126695;27;20042;-54
2022/09/02 04:18:40;;;;;;;20.20;5.65;;;;;;;;;;5134104;27;20026;-51
2022/09/02 04:21:05;;;;;;;26.60;5.88;;;;;;;;;;5135969;27;20026;-54
2022/09/02 04:23:31;;;;;;;24.17;5.00;;;;;;;;;;5136529;27;20395;-53
2022/09/02 04:25:56;;;;;;;22.17;5.55;;;;;;;;;;5133117;27;20023;-53
2022/09/02 04:28:21;;;;;;;24.60;5.55;;;;;;;;;;5131880;27;20102;-52
2022/09/02 04:30:47;;;;;;;10.50;4.57;;;;;;;;;;5130937;27;20071;-54
2022/09/02 04:33:12;;;;;;;20.70;4.63;;;;;;;;;;5133647;27;20023;-52
2022/09/02 04:35:42;;;;;;;20.48;6.90;;;;;;;;;;5128366;27;20035;-54
2022/09/02 04:38:07;;;;;;;17.52;5.82;;;;;;;;;;5128208;27;20109;-52
2022/09/02 04:40:33;;;;;;;25.35;7.93;;;;;;;;;;5128367;27;20163;-51
2022/09/02 04:42:58;;;;;;;12.93;5.30;;;;;;;;;;5134463;27;20023;-53
2022/09/02 04:45:24;;;;;;;14.20;4.80;;;;;;;;;;5136812;27;20027;-55
2022/09/02 04:47:49;;;;;;;18.33;4.88;;;;;;;;;;5129215;27;20015;-54
2022/09/02 04:50:14;;;;;;;12.60;4.20;;;;;;;;;;5129001;27;20551;-55
2022/09/02 04:52:40;;;;;;;22.63;5.47;;;;;;;;;;5123601;27;20103;-52
2022/09/02 04:55:05;;;;;;;24.05;5.07;;;;;;;;;;5132047;27;20180;-50
2022/09/02 04:57:31;;;;;;;16.15;4.00;;;;;;;;;;5132703;27;20193;-53
2022/09/02 04:59:57;;;;;;;15.90;5.68;;;;;;;;;;5131369;27;20019;-55
2022/09/02 05:02:22;;;;;;;10.95;3.42;;;;;;;;;;5136014;27;20614;-54
2022/09/02 05:04:48;;;;;;;24.75;7.82;;;;;;;;;;5130765;27;20027;-51
2022/09/02 05:07:14;;;;;;;14.70;4.25;;;;;;;;;;5130650;27;20024;-52
2022/09/02 05:09:40;;;;;;;14.88;5.95;;;;;;;;;;5124271;27;20023;-51
2022/09/02 05:12:06;;;;;;;17.63;5.88;;;;;;;;;;5132248;27;20377;-52
2022/09/02 05:14:31;;;;;;;9.77;4.30;;;;;;;;;;5134858;27;20027;-54
2022/09/02 05:16:59;;;;;;;28.70;8.15;;;;;;;;;;5132308;27;20022;-54
2022/09/02 05:19:24;;;;;;;11.35;6.50;;;;;;;;;;5131753;27;20027;-52
2022/09/02 05:21:52;;;;;;;31.10;5.60;;;;;;;;;;5132021;27;20027;-49
2022/09/02 05:24:18;;;;;;;19.70;4.10;;;;;;;;;;5132203;27;20537;-53
2022/09/02 05:26:43;;;;;;;23.83;7.47;;;;;;;;;;5134755;27;20061;-53
2022/09/02 05:29:10;;;;;;;14.13;6.88;;;;;;;;;;5123898;27;20022;-52
2022/09/02 05:31:35;;;;;;;24.48;6.65;;;;;;;;;;5127254;27;20055;-51
2022/09/02 05:34:01;;;;;;;17.75;6.85;;;;;;;;;;5131023;27;20081;-53
2022/09/02 05:36:26;;;;;;;24.25;5.95;;;;;;;;;;5135394;27;20444;-53
2022/09/02 05:38:51;;;;;;;24.20;6.55;;;;;;;;;;5134643;27;20071;-51
2022/09/02 05:41:24;;;;;;;18.50;6.95;;;;;;;;;;5137914;27;20031;-50
2022/09/02 05:43:54;;;;;;;29.35;8.68;;;;;;;;;;5133117;27;20027;-49
2022/09/02 05:46:22;;;;;;;26.75;5.63;;;;;;;;;;5131186;27;20060;-51
2022/09/02 05:49:06;;;;;;;19.85;5.72;;;;;;;;;;5134137;27;20027;-51
2022/09/02 05:51:33;;;;;;;25.55;5.90;;;;;;;;;;5135863;27;20067;-55
2022/09/02 05:53:59;;;;;;;18.40;5.43;;;;;;;;;;5128820;27;20141;-48
2022/09/02 05:56:24;;;;;;;22.50;6.30;;;;;;;;;;5136324;27;20015;-46
2022/09/02 05:58:50;;;;;;;23.95;4.55;;;;;;;;;;5135335;27;20074;-48
2022/09/02 06:01:16;;;;;;;22.50;6.43;;;;;;;;;;5132458;27;20072;-46
2022/09/02 06:03:41;;;;;;;26.00;5.40;;;;;;;;;;5129805;27;20075;-44
2022/09/02 06:06:07;;;;;;;20.23;7.55;;;;;;;;;;5131167;27;20015;-44
2022/09/02 06:08:33;;;;;;;18.55;6.82;;;;;;;;;;5130824;27;20015;-46
2022/09/02 06:11:01;;;;;;;16.52;7.93;;;;;;;;;;5131501;27;20097;-47
2022/09/02 06:13:27;;;;;;;16.48;6.85;;;;;;;;;;5133594;27;20073;-47
2022/09/02 06:15:53;;;;;;;41.85;8.90;;;;;;;;;;5135208;27;20030;-44
2022/09/02 06:18:18;;;;;;;37.13;15.00;;;;;;;;;;5132663;27;20023;-45
2022/09/02 06:20:45;;;;;;;46.05;21.15;;;;;;;;;;5132548;27;20017;-45
2022/09/02 06:23:10;;;;;;;14.55;9.32;;;;;;;;;;5137056;27;20014;-45
2022/09/02 06:25:40;;;;;;;26.33;17.40;;;;;;;;;;5131737;27;20738;-43
2022/09/02 06:28:05;;;;;;;16.85;9.50;;;;;;;;;;5137219;27;20478;-45
2022/09/02 06:30:31;;;;;;;28.00;10.02;;;;;;;;;;5117743;27;20046;-44
2022/09/02 06:32:56;;;;;;;22.60;10.10;;;;;;;;;;5111874;27;20019;-44
2022/09/02 06:35:22;;;;;;;18.35;8.05;;;;;;;;;;5133956;27;20098;-46
2022/09/02 06:37:47;;;;;;;14.68;10.55;;;;;;;;;;5135488;27;20236;-48
2022/09/02 06:40:13;;;;;;;18.67;9.02;;;;;;;;;;5135703;27;20048;-48
2022/09/02 06:42:39;;;;;;;12.43;7.97;;;;;;;;;;5127597;27;20016;-47
2022/09/02 06:45:04;;;;;;;38.33;12.95;;;;;;;;;;5130532;27;20024;-47
2022/09/02 06:47:30;;;;;;;37.60;9.50;;;;;;;;;;5134449;27;20072;-50
2022/09/02 06:49:56;;;;;;;34.00;6.50;;;;;;;;;;5131006;27;20478;-46
2022/09/02 06:52:21;;;;;;;22.70;6.97;;;;;;;;;;5136670;27;20058;-47
2022/09/02 06:54:48;;;;;;;10.65;6.82;;;;;;;;;;5134420;27;20167;-46
2022/09/02 06:57:13;;;;;;;32.63;7.30;;;;;;;;;;5127981;27;20055;-48
2022/09/02 06:59:38;;;;;;;17.92;7.38;;;;;;;;;;5128260;27;20031;-48
2022/09/02 07:02:04;;;;;;;6.03;3.05;;;;;;;;;;5131705;27;20132;-50
2022/09/02 07:07:13;;;;;;;33.03;12.45;;;;;;;;;;5127912;27;20030;-45
2022/09/02 07:09:39;;;;;;;16.23;6.68;;;;;;;;;;5133243;27;20027;-49
2022/09/02 07:12:04;;;;;;;46.28;10.18;;;;;;;;;;5133279;27;20397;-48
2022/09/02 07:14:29;;;;;;;21.02;8.52;;;;;;;;;;5137284;27;20027;-48
2022/09/02 07:16:58;;;;;;;24.67;5.13;;;;;;;;;;5132879;27;20030;-46
2022/09/02 07:19:24;;;;;;;21.27;6.00;;;;;;;;;;5133167;27;20046;-49
2022/09/02 07:21:50;;;;;;;11.52;3.70;;;;;;;;;;5132513;27;20041;-48
2022/09/02 07:24:19;;;;;;;7.75;5.00;;;;;;;;;;5133040;27;20026;-46
2022/09/02 07:26:44;;;;;;;10.55;4.22;;;;;;;;;;5132074;27;20015;-49
2022/09/02 07:29:10;;;;;;;17.30;4.18;;;;;;;;;;5135772;27;20018;-49
2022/09/02 07:31:36;;;;;;;17.63;5.28;;;;;;;;;;5133552;27;20054;-46
2022/09/02 07:34:03;;;;;;;10.95;4.38;;;;;;;;;;5128755;27;20057;-46
2022/09/02 07:36:28;;;;;;;21.90;8.88;;;;;;;;;;5133320;27;20668;-49
2022/09/02 07:38:54;;;;;;;17.75;5.65;;;;;;;;;;5133136;27;20147;-43
2022/09/02 07:41:20;;;;;;;41.25;11.80;;;;;;;;;;5133583;27;20027;-48
2022/09/02 07:43:45;;;;;;;14.70;6.65;;;;;;;;;;5129851;27;20037;-46
2022/09/02 07:46:11;;;;;;;16.42;6.80;;;;;;;;;;5133617;27;20053;-45
2022/09/02 07:48:36;;;;;;;12.38;7.05;;;;;;;;;;5132503;27;20102;-46
2022/09/02 07:51:02;;;;;;;6.25;3.90;;;;;;;;;;5128360;27;20037;-43
2022/09/02 07:53:28;;;;;;;17.00;6.60;;;;;;;;;;5131549;27;20016;-44
2022/09/02 07:55:53;;;;;;;21.08;6.72;;;;;;;;;;5117795;27;20043;-42
2022/09/02 07:58:20;;;;;;;14.75;6.97;;;;;;;;;;5132213;27;20441;-50
2022/09/02 08:00:45;;;;;;;12.40;4.07;;;;;;;;;;5126692;27;20109;-47
2022/09/02 08:03:11;;;;;;;16.65;4.72;;;;;;;;;;5131300;27;20129;-52
2022/09/02 08:05:37;;;;;;;21.80;4.15;;;;;;;;;;5131266;27;20030;-58
2022/09/02 08:08:02;;;;;;;17.67;5.40;;;;;;;;;;5137325;27;20011;-59
2022/09/02 08:10:29;;;;;;;18.02;3.80;;;;;;;;;;5126419;27;20072;-58
2022/09/02 08:12:55;;;;;;;15.95;6.55;;;;;;;;;;5136932;27;20023;-58
2022/09/02 08:15:21;;;;;;;17.42;7.22;;;;;;;;;;5128050;27;20034;-58
2022/09/02 08:17:46;;;;;;;19.42;7.50;;;;;;;;;;5133795;27;20072;-58
2022/09/02 08:20:13;;;;;;;10.27;4.43;;;;;;;;;;5131847;27;20390;-58
2022/09/02 08:22:38;;;;;;;21.17;5.32;;;;;;;;;;5131470;27;20038;-58
2022/09/02 08:25:04;;;;;;;9.70;4.03;;;;;;;;;;5130254;27;20023;-58
2022/09/02 08:27:31;;;;;;;21.02;6.43;;;;;;;;;;5135436;27;20026;-56
2022/09/02 08:29:57;;;;;;;19.20;7.30;;;;;;;;;;5127903;27;20459;-58
2022/09/02 08:32:23;;;;;;;18.20;6.05;;;;;;;;;;5125643;27;20049;-59
2022/09/02 08:34:48;;;;;;;23.45;8.68;;;;;;;;;;5131296;27;20022;-58
2022/09/02 08:37:13;;;;;;;20.52;8.00;;;;;;;;;;5132585;27;20033;-58
2022/09/02 08:39:38;;;;;;;10.50;5.45;;;;;;;;;;5130734;27;20024;-58
2022/09/02 08:42:04;;;;;;;15.43;5.63;;;;;;;;;;5131352;27;20076;-58
2022/09/02 08:44:32;;;;;;;35.47;7.07;;;;;;;;;;5132343;27;20027;-58
2022/09/02 08:47:00;;;;;;;36.72;9.68;;;;;;;;;;5133792;27;20019;-58
2022/09/02 08:49:30;;;;;;;18.27;6.53;;;;;;;;;;5129436;27;20022;-58
2022/09/02 08:52:00;;;;;;;20.55;5.05;;;;;;;;;;5130186;27;20023;-58
2022/09/02 08:54:31;;;;;;;16.20;8.40;;;;;;;;;;5134023;27;20055;-58
2022/09/02 08:56:57;;;;;;;21.20;5.65;;;;;;;;;;5133487;27;20023;-58
2022/09/02 08:59:27;;;;;;;15.90;7.35;;;;;;;;;;5129650;27;20102;-58
2022/09/02 09:01:55;;;;;;;17.27;5.60;;;;;;;;;;5130900;27;20059;-58
2022/09/02 09:04:39;;;;;;;23.00;6.53;;;;;;;;;;5129593;27;20064;-58
2022/09/02 09:07:23;;;;;;;22.77;6.70;;;;;;;;;;5135544;27;20019;-58
2022/09/02 09:09:58;;;;;;;28.48;7.25;;;;;;;;;;5136123;27;20554;-58
2022/09/02 09:12:24;;;;;;;35.97;6.20;;;;;;;;;;5132819;27;20058;-58
2022/09/02 09:14:56;;;;;;;14.77;5.63;;;;;;;;;;5139134;27;20435;-59
2022/09/02 09:17:22;;;;;;;12.07;6.95;;;;;;;;;;5136339;27;20049;-58
2022/09/02 09:19:49;;;;;;;22.27;6.60;;;;;;;;;;5137023;27;20470;-58
2022/09/02 09:22:18;;;;;;;21.02;5.40;;;;;;;;;;5134537;27;20058;-58
2022/09/02 09:24:44;;;;;;;21.00;6.35;;;;;;;;;;5128087;27;20023;-58
2022/09/02 09:27:17;;;;;;;10.15;3.15;;;;;;;;;;5129160;27;20478;-58
2022/09/02 09:29:43;;;;;;;6.88;2.13;;;;;;;;;;5134337;27;20393;-59
2022/09/02 09:32:16;;;;;;;8.05;3.13;;;;;;;;;;5136585;27;20461;-58
2022/09/02 09:34:50;;;;;;;10.98;4.35;;;;;;;;;;5136231;27;20054;-58
2022/09/02 09:37:33;;;;;;;13.70;4.47;;;;;;;;;;5136732;27;20038;-58
2022/09/02 09:39:59;;;;;;;10.65;2.28;;;;;;;;;;5132525;27;20025;-58
2022/09/02 09:42:31;;;;;;;10.43;3.53;;;;;;;;;;5133119;27;20015;-58
2022/09/02 09:44:56;;;;;;;3.45;1.40;;;;;;;;;;5131951;27;20059;-58
2022/09/02 09:47:24;;;;;;;7.80;2.70;;;;;;;;;;5132428;27;20046;-58
2022/09/02 09:50:07;;;;;;;13.68;3.28;;;;;;;;;;5134026;27;20019;-58
2022/09/02 09:52:32;;;;;;;10.50;2.40;;;;;;;;;;5129423;27;20023;-60
2022/09/02 09:55:07;;;;;;;13.73;3.50;;;;;;;;;;5128971;27;20577;-58
2022/09/02 09:57:32;;;;;;;6.50;1.30;;;;;;;;;;5131242;27;20121;-58
2022/09/02 10:00:01;;;;;;;12.93;3.20;;;;;;;;;;5131976;27;20098;-58
2022/09/02 10:02:26;;;;;;;7.13;3.45;;;;;;;;;;5135326;27;20027;-58
2022/09/02 10:04:53;;;;;;;6.57;1.92;;;;;;;;;;5126057;27;20037;-59
2022/09/02 10:07:37;;;;;;;1.45;0.80;;;;;;;;;;5130997;27;20103;-59
2022/09/02 10:10:14;;;;;;;7.75;2.13;;;;;;;;;;5137120;27;20034;-59
2022/09/02 10:12:39;;;;;;;8.27;3.83;;;;;;;;;;5138677;27;20022;-58
2022/09/02 10:15:05;;;;;;;4.57;2.25;;;;;;;;;;5138325;27;20688;-57
2022/09/02 10:17:45;;;;;;;6.90;2.03;;;;;;;;;;5134678;27;20026;-58
2022/09/02 10:20:11;;;;;;;;;;;;;;;;;;5135302;27;20019;-60
2022/09/02 10:22:48;;;;;;;15.68;2.55;;;;;;;;;;5135316;27;19907;-58
2022/09/02 10:25:18;;;;;;;10.20;4.50;;;;;;;;;;5135891;27;20023;-59
2022/09/02 10:27:59;;;;;;;2.78;1.58;;;;;;;;;;5133734;27;20118;-59
2022/09/02 10:30:25;;;;;;;10.40;1.45;;;;;;;;;;5134973;27;20127;-58
2022/09/02 10:32:53;;;;;;;7.43;2.75;;;;;;;;;;5134919;27;20043;-58
2022/09/02 10:35:34;;;;;;;20.70;5.28;;;;;;;;;;5136782;27;20478;-58
2022/09/02 10:38:17;;;;;;;18.73;3.30;;;;;;;;;;5139830;27;20088;-57
2022/09/02 10:40:45;;;;;;;7.80;2.28;;;;;;;;;;5131251;27;20034;-58
2022/09/02 10:43:31;;;;;;;5.90;3.65;;;;;;;;;;5132447;27;20534;-58
2022/09/02 10:46:00;;;;;;;5.93;3.00;;;;;;;;;;5119275;27;20026;-58
2022/09/02 10:48:37;;;;;;;5.30;2.13;;;;;;;;;;5136371;27;20010;-58
2022/09/02 10:51:21;;;;;;;4.75;1.83;;;;;;;;;;5130060;27;20155;-57
2022/09/02 10:53:53;;;;;;;7.18;2.72;;;;;;;;;;5126400;27;20015;-57
2022/09/02 10:56:20;;;;;;;19.55;4.55;;;;;;;;;;5135322;27;20039;-59
2022/09/02 10:58:48;;;;;;;9.25;3.38;;;;;;;;;;5133975;27;20030;-58
2022/09/02 11:01:34;;;;;;;19.88;4.32;;;;;;;;;;5134460;27;20023;-58
2022/09/02 11:04:08;;;;;;;13.40;4.00;;;;;;;;;;5137397;27;20529;-57
2022/09/02 11:06:38;;;;;;;10.07;4.13;;;;;;;;;;5127545;27;20658;-58
2022/09/02 11:09:11;;;;;;;16.10;3.05;;;;;;;;;;5134612;27;20085;-59
2022/09/02 11:11:36;;;;;;;7.15;2.17;;;;;;;;;;5131798;27;20031;-59
2022/09/02 11:14:24;;;;;;;23.13;4.28;;;;;;;;;;5130049;27;20094;-59
2022/09/02 11:16:54;;;;;;;8.63;2.83;;;;;;;;;;5118686;27;20049;-61
2022/09/02 11:19:29;;;;;;;13.10;3.00;;;;;;;;;;5129329;27;20063;-59
2022/09/02 11:21:54;;;;;;;8.50;1.33;;;;;;;;;;5132110;27;20055;-58
2022/09/02 11:24:35;;;;;;;8.77;2.42;;;;;;;;;;5131941;27;20413;-58
2022/09/02 11:27:00;;;;;;;;;;;;;;;;;;5134771;27;20022;-58
2022/09/02 11:29:36;;;;;;;4.80;1.47;;;;;;;;;;5134033;27;19904;-59
2022/09/02 11:32:08;;;;;;;9.63;2.58;;;;;;;;;;5130106;27;20028;-59
2022/09/02 11:34:36;;;;;;;5.95;3.58;;;;;;;;;;5132546;27;20030;-59
2022/09/02 11:37:05;;;;;;;11.82;3.83;;;;;;;;;;5128295;27;20532;-60
2022/09/02 11:39:39;;;;;;;16.70;3.63;;;;;;;;;;5131617;27;20103;-58
2022/09/02 11:42:20;;;;;;;5.88;3.63;;;;;;;;;;5135123;27;20015;-59
2022/09/02 11:44:48;;;;;;;11.18;4.88;;;;;;;;;;5129975;27;20011;-59
2022/09/02 11:47:14;;;;;;;12.35;4.03;;;;;;;;;;5132573;27;20061;-60
2022/09/02 11:49:39;;;;;;;16.23;5.85;;;;;;;;;;5135858;27;20418;-59
2022/09/02 11:52:20;;;;;;;8.50;4.20;;;;;;;;;;5130928;27;20080;-59
2022/09/02 11:54:47;;;;;;;23.63;4.55;;;;;;;;;;5130220;27;20653;-59
2022/09/02 11:57:19;;;;;;;15.07;4.00;;;;;;;;;;5131590;27;20015;-57
2022/09/02 11:59:50;;;;;;;15.18;4.00;;;;;;;;;;5129507;27;20023;-58
2022/09/02 12:02:33;;;;;;;5.88;2.30;;;;;;;;;;5129935;27;20011;-58
2022/09/02 12:05:17;;;;;;;14.70;4.25;;;;;;;;;;5135349;27;20011;-58
2022/09/02 12:07:46;;;;;;;10.50;3.60;;;;;;;;;;5132013;27;20020;-58
2022/09/02 12:10:31;;;;;;;6.05;2.22;;;;;;;;;;5130787;27;20015;-58
2022/09/02 12:12:58;;;;;;;9.80;2.53;;;;;;;;;;5130992;27;20114;-59
2022/09/02 12:15:23;;;;;;;12.57;2.40;;;;;;;;;;5131549;27;20022;-59
2022/09/02 12:17:48;;;;;;;13.95;2.72;;;;;;;;;;5135734;27;20019;-58
2022/09/02 12:20:32;;;;;;;8.77;3.25;;;;;;;;;;5132863;27;20047;-58
2022/09/02 12:22:58;;;;;;;14.80;4.97;;;;;;;;;;5129822;27;20144;-61
2022/09/02 12:25:24;;;;;;;20.42;7.00;;;;;;;;;;5133335;27;20077;-60
2022/09/02 12:27:49;;;;;;;17.90;3.47;;;;;;;;;;5132504;27;20019;-60
2022/09/02 12:30:35;;;;;;;6.20;2.53;;;;;;;;;;5135572;27;20018;-60
2022/09/02 12:33:02;;;;;;;25.30;4.03;;;;;;;;;;5132382;27;20034;-61
2022/09/02 12:35:36;;;;;;;12.82;4.93;;;;;;;;;;5131950;27;20023;-61
2022/09/02 12:38:11;;;;;;;7.47;1.92;;;;;;;;;;5129387;27;20050;-61
2022/09/02 12:40:39;;;;;;;10.32;4.13;;;;;;;;;;5131486;27;20018;-61
2022/09/02 12:43:13;;;;;;;10.85;2.95;;;;;;;;;;5115553;27;20027;-61
2022/09/02 12:45:42;;;;;;;8.63;4.93;;;;;;;;;;5130482;27;20478;-61
2022/09/02 12:48:12;;;;;;;22.42;4.85;;;;;;;;;;5134316;27;20058;-60
2022/09/02 12:50:37;;;;;;;;;;;;;;;;;;5131567;27;20071;-61
2022/09/02 12:53:22;;;;;;;14.30;4.55;;;;;;;;;;5129103;27;20323;-59
2022/09/02 12:55:53;;;;;;;9.88;3.55;;;;;;;;;;5131583;27;20081;-61
2022/09/02 12:58:21;;;;;;;5.47;2.58;;;;;;;;;;5131381;27;20011;-61
2022/09/02 13:01:07;;;;;;;8.75;3.75;;;;;;;;;;5131662;27;20049;-62
2022/09/02 13:03:38;;;;;;;5.93;2.88;;;;;;;;;;5128542;27;20026;-62
2022/09/02 13:06:07;;;;;;;25.38;5.25;;;;;;;;;;5129738;27;20026;-62
2022/09/02 13:08:44;;;;;;;15.48;5.53;;;;;;;;;;5133592;27;20672;-62
2022/09/02 13:11:16;;;;;;;6.93;2.60;;;;;;;;;;5128877;27;20027;-62
2022/09/02 13:13:44;;;;;;;8.80;3.13;;;;;;;;;;5128719;27;20110;-61
2022/09/02 13:16:09;;;;;;;14.32;4.75;;;;;;;;;;5130019;27;20043;-62
2022/09/02 13:18:47;;;;;;;13.57;4.88;;;;;;;;;;5131558;27;20466;-60
2022/09/02 13:21:15;;;;;;;3.25;2.38;;;;;;;;;;5130916;27;20028;-60
2022/09/02 13:23:46;;;;;;;8.45;2.30;;;;;;;;;;5112817;27;20140;-61
2022/09/02 13:26:16;;;;;;;9.15;4.18;;;;;;;;;;5130193;27;20529;-62
2022/09/02 13:28:57;;;;;;;4.88;3.05;;;;;;;;;;5128041;27;20050;-61
2022/09/02 13:31:22;;;;;;;;;;;;;;;;;;5128936;27;20026;-61
2022/09/02 13:34:23;;;;;;;15.10;4.50;;;;;;;;;;5133111;27;19903;-62
2022/09/02 13:36:48;;;;;;;;;;;;;;;;;;5053238;28;20285;-61
2022/09/02 13:39:17;;;;;;;6.93;2.60;;;;;;;;;;5115265;27;19943;-61
2022/09/02 13:41:42;;;;;;;13.50;3.72;;;;;;;;;;5134108;27;20513;-61
2022/09/02 13:44:12;;;;;;;11.07;3.45;;;;;;;;;;5115570;27;20035;-63
2022/09/02 13:46:44;;;;;;;11.55;4.30;;;;;;;;;;5130952;27;20031;-60
2022/09/02 13:49:20;;;;;;;9.90;3.92;;;;;;;;;;5130798;27;20022;-61
2022/09/02 13:51:46;;;;;;;11.35;2.85;;;;;;;;;;5130607;27;20038;-62
2022/09/02 13:54:12;;;;;;;14.60;6.10;;;;;;;;;;5119229;27;20541;-61
2022/09/02 13:56:38;;;;;;;11.20;2.60;;;;;;;;;;5138856;27;20040;-61
2022/09/02 13:59:03;;;;;;;5.97;3.45;;;;;;;;;;5136623;27;20019;-60
2022/09/02 14:01:28;;;;;;;5.07;1.77;;;;;;;;;;5135357;27;20106;-61
2022/09/02 14:03:55;;;;;;;7.25;3.10;;;;;;;;;;5131101;27;20072;-60
2022/09/02 14:06:29;;;;;;;15.57;4.72;;;;;;;;;;5137942;27;20030;-61
2022/09/02 14:08:57;;;;;;;12.65;3.45;;;;;;;;;;5133919;27;20034;-62
2022/09/02 14:11:23;;;;;;;10.63;4.43;;;;;;;;;;5135391;27;20103;-59
2022/09/02 14:13:49;;;;;;;8.82;3.20;;;;;;;;;;5123070;27;20050;-58
2022/09/02 14:16:24;;;;;;;8.05;3.97;;;;;;;;;;5131978;27;20462;-59
2022/09/02 14:19:03;;;;;;;4.55;2.25;;;;;;;;;;5135584;27;20469;-59
2022/09/02 14:21:28;;;;;;;7.97;2.20;;;;;;;;;;5137270;27;20749;-58
2022/09/02 14:23:53;;;;;;;18.67;11.80;;;;;;;;;;5133902;27;20517;-59
2022/09/02 14:26:22;;;;;;;10.20;3.10;;;;;;;;;;5133379;27;20015;-58
2022/09/02 14:28:49;;;;;;;6.20;2.03;;;;;;;;;;5131910;27;20014;-59
2022/09/02 14:31:28;;;;;;;14.40;3.80;;;;;;;;;;5135805;27;20475;-59
2022/09/02 14:33:53;;;;;;;8.90;2.65;;;;;;;;;;5132806;27;20732;-59
2022/09/02 14:36:20;;;;;;;37.35;7.13;;;;;;;;;;5126585;27;20470;-59
2022/09/02 14:38:48;;;;;;;9.45;3.15;;;;;;;;;;5132254;27;20020;-59
2022/09/02 14:41:16;;;;;;;5.97;2.42;;;;;;;;;;5134453;27;20015;-60